Time;durP1;ratioP1;P1;durP2;ratioP2;P2;SDS_P1;SDS_P2;PMS_P1;PMS_P2;Temp;Humidity;BMP_temperature;BMP_pressure;BME280_temperature;BME280_humidity;BME280_pressure;Samples;Min_cycle;Max_cycle;Signal;HPM_P1;HPM_P2
2022/03/04 00:01:58;;;;;;;74.32;45.33;;;;;;;2.50;84.25;95403.91;6303136;22;20007;-61
2022/03/04 00:04:24;;;;;;;71.80;43.97;;;;;;;2.54;84.39;95401.97;6303096;22;20011;-61
2022/03/04 00:06:49;;;;;;;70.90;44.85;;;;;;;2.52;85.29;95396.03;6303025;22;20016;-61
2022/03/04 00:09:15;;;;;;;70.22;43.92;;;;;;;2.46;84.76;95402.47;6303122;22;20106;-61
2022/03/04 00:11:41;;;;;;;68.05;43.40;;;;;;;2.46;84.68;95402.47;6275509;22;20395;-61
2022/03/04 00:14:07;;;;;;;69.03;43.33;;;;;;;2.47;83.67;95403.31;6303000;22;20047;-61
2022/03/04 00:16:32;;;;;;;51.78;35.67;;;;;;;2.45;84.98;95398.19;6302821;22;20087;-61
2022/03/04 00:19:08;;;;;;;55.47;35.35;;;;;;;2.41;85.51;95394.13;6302952;22;20038;-61
2022/03/04 00:21:41;;;;;;;50.67;33.50;;;;;;;2.36;85.47;95393.59;6303083;22;20024;-61
2022/03/04 00:24:09;;;;;;;49.20;33.30;;;;;;;2.33;85.86;95402.41;6303078;22;20003;-61
2022/03/04 00:26:35;;;;;;;47.00;31.67;;;;;;;2.32;86.15;95389.50;6302952;22;20014;-60
2022/03/04 00:29:01;;;;;;;46.25;32.38;;;;;;;2.31;84.84;95395.66;6303198;22;20066;-61
2022/03/04 00:31:28;;;;;;;44.85;29.50;;;;;;;2.23;86.65;95386.59;6302905;22;20051;-61
2022/03/04 00:33:53;;;;;;;48.90;29.92;;;;;;;2.19;86.98;95390.31;6302786;22;20008;-61
2022/03/04 00:36:22;;;;;;;42.45;27.73;;;;;;;2.22;86.30;95389.31;6302789;22;20086;-61
2022/03/04 00:38:52;;;;;;;40.95;27.90;;;;;;;2.21;86.11;95379.81;6302600;22;20056;-61
2022/03/04 00:41:19;;;;;;;45.95;27.33;;;;;;;2.20;86.08;95386.78;6302598;22;20008;-61
2022/03/04 00:43:45;;;;;;;42.65;26.35;;;;;;;2.18;86.03;95386.06;6301870;22;20005;-61
2022/03/04 00:46:11;;;;;;;36.40;26.08;;;;;;;2.07;86.19;95378.09;6301232;22;20060;-61
2022/03/04 00:48:37;;;;;;;38.53;24.40;;;;;;;2.10;86.20;95380.50;6300884;22;19999;-61
2022/03/04 00:51:04;;;;;;;32.83;25.10;;;;;;;2.09;86.80;95378.84;6301172;22;20003;-61
2022/03/04 00:53:30;;;;;;;32.38;23.17;;;;;;;2.09;86.45;95374.47;6301027;22;19999;-61
2022/03/04 00:55:56;;;;;;;33.65;23.92;;;;;;;2.03;87.32;95372.28;6300654;22;20019;-61
2022/03/04 00:58:21;;;;;;;35.40;24.02;;;;;;;1.99;87.02;95369.03;6300700;22;19999;-61
2022/03/04 01:00:47;;;;;;;32.60;23.80;;;;;;;1.99;87.16;95369.03;6301066;22;20078;-61
2022/03/04 01:03:12;;;;;;;37.45;25.88;;;;;;;1.97;87.05;95368.31;6273471;22;20008;-61
2022/03/04 01:05:38;;;;;;;34.33;23.67;;;;;;;1.96;86.77;95369.25;6300685;22;20083;-60
2022/03/04 01:08:03;;;;;;;27.25;21.75;;;;;;;1.98;86.59;95362.19;6300752;22;20392;-61
2022/03/04 01:10:29;;;;;;;28.75;22.00;;;;;;;1.94;86.83;95358.13;6300365;22;20024;-61
2022/03/04 01:12:54;;;;;;;26.90;21.77;;;;;;;1.89;87.90;95361.94;6301374;22;20554;-60
2022/03/04 01:15:20;;;;;;;32.67;23.48;;;;;;;1.86;88.23;95360.34;6300497;22;20000;-60
2022/03/04 01:17:45;;;;;;;26.70;22.02;;;;;;;1.86;87.94;95357.75;6300761;22;20067;-60
2022/03/04 01:20:11;;;;;;;33.03;25.02;;;;;;;1.89;86.90;95360.19;6300640;22;20010;-61
2022/03/04 01:22:36;;;;;;;38.28;27.35;;;;;;;1.95;86.37;95353.75;6300506;22;20056;-60
2022/03/04 01:25:03;;;;;;;38.38;28.23;;;;;;;1.92;87.34;95357.38;6300123;22;20010;-61
2022/03/04 01:27:28;;;;;;;42.45;27.85;;;;;;;1.87;87.63;95359.41;6301043;22;20007;-60
2022/03/04 01:29:54;;;;;;;37.28;26.92;;;;;;;1.78;86.73;95360.00;6300761;22;19999;-61
2022/03/04 01:32:20;;;;;;;39.92;25.80;;;;;;;1.74;86.44;95354.16;6300371;22;20022;-60
2022/03/04 01:34:45;;;;;;;38.33;25.20;;;;;;;1.75;87.00;95352.41;6300365;22;20338;-61
2022/03/04 01:37:11;;;;;;;39.33;26.90;;;;;;;1.76;86.04;95352.31;6300208;22;20007;-61
2022/03/04 01:39:36;;;;;;;39.95;27.05;;;;;;;1.78;86.40;95345.28;6300281;22;20064;-61
2022/03/04 01:42:03;;;;;;;33.78;24.25;;;;;;;1.80;86.36;95343.41;6300528;22;20010;-61
2022/03/04 01:44:29;;;;;;;41.30;25.75;;;;;;;1.68;86.81;95345.03;6301017;22;20005;-60
2022/03/04 01:46:54;;;;;;;37.15;25.08;;;;;;;1.62;87.15;95345.38;6273349;22;20490;-61
2022/03/04 01:49:20;;;;;;;34.65;25.60;;;;;;;1.60;87.61;95347.25;6300505;22;20450;-60
2022/03/04 01:51:46;;;;;;;37.67;27.15;;;;;;;1.62;87.03;95349.75;6300690;22;20007;-61
2022/03/04 01:54:11;;;;;;;33.10;25.55;;;;;;;1.62;87.42;95344.56;6300650;22;20000;-60
2022/03/04 01:56:37;;;;;;;32.53;24.02;;;;;;;1.59;86.87;95344.75;6300509;22;19995;-61
2022/03/04 01:59:02;;;;;;;33.72;24.60;;;;;;;1.52;87.69;95345.13;6300732;22;20389;-61
2022/03/04 02:01:28;;;;;;;32.40;23.27;;;;;;;1.46;87.40;95342.91;6300426;22;20335;-62
2022/03/04 02:03:53;;;;;;;32.67;24.33;;;;;;;1.39;87.54;95341.63;6300475;22;20416;-62
2022/03/04 02:06:19;;;;;;;32.67;21.55;;;;;;;1.35;87.48;95343.56;6300538;22;20079;-62
2022/03/04 02:08:44;;;;;;;29.02;22.40;;;;;;;1.36;88.36;95342.66;6299668;22;20320;-62
2022/03/04 02:11:10;;;;;;;26.40;20.60;;;;;;;1.34;88.19;95341.91;6300270;22;20075;-62
2022/03/04 02:13:37;;;;;;;25.90;19.67;;;;;;;1.32;87.93;95343.75;6300825;22;20425;-62
2022/03/04 02:16:11;;;;;;;27.80;19.60;;;;;;;1.28;87.94;95340.50;6300375;22;20010;-61
2022/03/04 02:18:36;;;;;;;23.35;17.95;;;;;;;1.25;88.00;95348.47;6300537;22;20119;-61
2022/03/04 02:21:04;;;;;;;22.05;16.05;;;;;;;1.27;87.96;95338.84;6300466;22;20007;-62
2022/03/04 02:23:29;;;;;;;25.40;16.30;;;;;;;1.31;88.13;95339.50;6300183;22;20007;-62
2022/03/04 02:25:55;;;;;;;26.42;16.50;;;;;;;1.29;87.06;95328.41;6300623;22;20046;-62
2022/03/04 02:28:21;;;;;;;21.30;16.55;;;;;;;1.28;87.66;95339.69;6300396;22;20099;-62
2022/03/04 02:30:46;;;;;;;18.92;15.30;;;;;;;1.22;89.10;95333.13;6300534;22;20003;-62
2022/03/04 02:33:12;;;;;;;21.75;16.02;;;;;;;1.19;88.45;95330.72;6300687;22;20055;-61
2022/03/04 02:35:39;;;;;;;16.85;15.13;;;;;;;1.16;88.39;95332.66;6300199;22;20071;-62
2022/03/04 02:38:05;;;;;;;20.02;14.95;;;;;;;1.09;88.67;95337.38;6300716;22;19999;-62
2022/03/04 02:40:31;;;;;;;16.90;15.20;;;;;;;1.04;89.34;95342.00;6300319;22;20015;-62
2022/03/04 02:42:56;;;;;;;18.10;14.52;;;;;;;1.03;89.50;95348.13;6300379;22;20035;-61
2022/03/04 02:45:22;;;;;;;16.95;14.52;;;;;;;0.99;89.97;95350.91;6300035;22;20003;-61
2022/03/04 02:47:48;;;;;;;16.70;13.93;;;;;;;0.96;89.20;95347.66;6300297;22;20010;-62
2022/03/04 02:50:13;;;;;;;17.42;14.52;;;;;;;0.97;88.77;95341.53;6300266;22;19999;-62
2022/03/04 02:52:39;;;;;;;18.63;13.70;;;;;;;1.03;88.73;95343.78;6300522;22;20014;-62
2022/03/04 02:55:10;;;;;;;16.52;14.18;;;;;;;1.07;89.00;95341.81;6300615;22;20074;-62
2022/03/04 02:57:35;;;;;;;18.98;13.45;;;;;;;1.09;88.30;95342.56;6300181;22;20074;-61
2022/03/04 03:00:01;;;;;;;15.02;13.43;;;;;;;1.07;89.03;95345.25;6300096;22;20090;-61
2022/03/04 03:02:27;;;;;;;17.13;14.77;;;;;;;1.03;88.75;95341.19;6300068;22;20003;-62
2022/03/04 03:04:52;;;;;;;17.38;13.85;;;;;;;1.02;88.65;95347.28;6300197;22;20003;-61
2022/03/04 03:07:18;;;;;;;16.65;13.48;;;;;;;0.98;89.19;95345.78;6300483;22;20029;-62
2022/03/04 03:09:43;;;;;;;16.27;13.23;;;;;;;1.00;89.65;95346.56;6299425;22;20090;-61
2022/03/04 03:12:09;;;;;;;15.05;12.50;;;;;;;0.97;89.60;95347.56;6299771;22;20010;-61
2022/03/04 03:14:35;;;;;;;14.63;13.10;;;;;;;0.92;89.05;95351.34;6272645;22;20747;-61
2022/03/04 03:17:00;;;;;;;15.70;13.45;;;;;;;0.82;89.41;95349.31;6300324;22;20430;-61
2022/03/04 03:19:25;;;;;;;15.43;12.50;;;;;;;0.79;90.05;95346.91;6299964;22;20015;-61
2022/03/04 03:21:51;;;;;;;14.80;13.13;;;;;;;0.79;89.96;95346.91;6300066;22;20007;-61
2022/03/04 03:24:16;;;;;;;16.95;14.13;;;;;;;0.79;89.37;95356.41;6300148;22;20006;-62
2022/03/04 03:26:41;;;;;;;15.63;13.07;;;;;;;0.77;89.51;95353.09;6300078;22;19999;-61
2022/03/04 03:29:08;;;;;;;14.80;13.23;;;;;;;0.79;89.43;95354.69;6300241;22;20342;-61
2022/03/04 03:31:33;;;;;;;16.10;13.95;;;;;;;0.76;90.24;95357.44;6300037;22;20003;-62
2022/03/04 03:33:59;;;;;;;14.82;13.38;;;;;;;0.73;90.51;95352.44;6300244;22;20438;-61
2022/03/04 03:36:24;;;;;;;14.68;12.68;;;;;;;0.72;89.80;95355.94;6299535;22;20320;-61
2022/03/04 03:38:49;;;;;;;15.32;12.57;;;;;;;0.68;90.09;95362.25;6299428;22;20007;-61
2022/03/04 03:41:15;;;;;;;14.93;13.43;;;;;;;0.64;90.11;95358.16;6299851;22;20388;-62
2022/03/04 03:43:40;;;;;;;15.30;13.57;;;;;;;0.62;90.09;95358.25;6300358;22;19996;-61
2022/03/04 03:46:06;;;;;;;18.08;14.60;;;;;;;0.61;90.17;95359.16;6299711;22;20431;-61
2022/03/04 03:48:31;;;;;;;15.80;13.68;;;;;;;0.59;90.01;95360.19;6300157;22;20011;-61
2022/03/04 03:50:56;;;;;;;15.73;13.75;;;;;;;0.53;89.85;95359.59;6272360;22;20431;-62
2022/03/04 03:53:22;;;;;;;14.23;12.73;;;;;;;0.53;90.25;95366.56;6299754;22;20007;-61
2022/03/04 03:55:47;;;;;;;14.70;12.80;;;;;;;0.54;90.06;95371.63;6299722;22;20339;-61
2022/03/04 03:58:13;;;;;;;15.65;12.73;;;;;;;0.54;90.34;95363.03;6300051;22;20023;-61
2022/03/04 04:00:38;;;;;;;15.60;14.00;;;;;;;0.51;90.62;95358.84;6299543;22;20442;-62
2022/03/04 04:03:04;;;;;;;15.30;13.70;;;;;;;0.49;90.53;95360.72;6299567;22;20003;-61
2022/03/04 04:05:29;;;;;;;15.25;13.18;;;;;;;0.50;90.42;95358.97;6299408;22;20007;-61
2022/03/04 04:07:54;;;;;;;15.43;13.25;;;;;;;0.50;90.36;95357.19;6299902;22;20084;-62
2022/03/04 04:10:20;;;;;;;13.85;12.55;;;;;;;0.46;90.57;95358.28;6299340;22;20176;-62
2022/03/04 04:12:46;;;;;;;15.60;13.57;;;;;;;0.40;90.68;95358.66;6299731;22;20007;-61
2022/03/04 04:15:11;;;;;;;15.20;13.65;;;;;;;0.40;91.05;95356.88;6299602;22;20027;-61
2022/03/04 04:17:37;;;;;;;16.45;14.65;;;;;;;0.42;91.31;95359.41;6299720;22;20010;-61
2022/03/04 04:20:03;;;;;;;15.15;13.65;;;;;;;0.38;91.82;95353.56;6299631;22;20473;-61
2022/03/04 04:22:28;;;;;;;14.68;13.20;;;;;;;0.38;91.21;95355.31;6300486;22;20007;-62
2022/03/04 04:24:53;;;;;;;20.55;13.90;;;;;;;0.37;90.86;95351.06;6300683;22;20018;-62
2022/03/04 04:27:19;;;;;;;15.57;12.82;;;;;;;0.35;90.57;95348.56;6300337;22;20012;-62
2022/03/04 04:29:44;;;;;;;15.07;13.48;;;;;;;0.31;90.50;95351.41;6301315;22;20000;-62
2022/03/04 04:32:10;;;;;;;14.32;12.93;;;;;;;0.29;90.29;95351.50;6300893;22;20023;-62
2022/03/04 04:34:35;;;;;;;14.82;12.90;;;;;;;0.27;90.16;95346.41;6301260;22;20007;-61
2022/03/04 04:37:01;;;;;;;16.25;13.70;;;;;;;0.24;90.15;95354.34;6300966;22;20439;-62
2022/03/04 04:39:26;;;;;;;20.15;14.52;;;;;;;0.21;90.64;95354.53;6300531;22;20551;-62
2022/03/04 04:41:52;;;;;;;15.02;13.50;;;;;;;0.21;90.77;95351.94;6301157;22;20082;-61
2022/03/04 04:44:17;;;;;;;14.27;12.77;;;;;;;0.25;90.28;95355.19;6273207;22;20011;-62
2022/03/04 04:46:43;;;;;;;36.25;26.90;;;;;;;0.25;90.62;95352.59;6300434;22;20003;-61
2022/03/04 04:49:09;;;;;;;37.85;30.90;;;;;;;0.22;90.98;95357.94;6300430;22;20427;-62
2022/03/04 04:51:35;;;;;;;34.85;25.20;;;;;;;0.22;90.96;95358.78;6300865;22;20003;-61
2022/03/04 04:54:00;;;;;;;41.63;29.55;;;;;;;0.17;90.86;95353.03;6300495;22;20074;-61
2022/03/04 04:56:25;;;;;;;41.00;32.10;;;;;;;0.14;91.21;95358.38;6300419;22;20048;-62
2022/03/04 04:58:51;;;;;;;39.80;31.00;;;;;;;0.11;91.52;95364.56;6300885;22;20431;-63
2022/03/04 05:01:16;;;;;;;36.20;26.52;;;;;;;0.10;92.21;95369.81;6300275;22;20389;-62
2022/03/04 05:03:43;;;;;;;31.63;25.55;;;;;;;0.11;90.83;95363.72;6300201;22;20004;-61
2022/03/04 05:06:09;;;;;;;27.65;22.95;;;;;;;0.10;91.41;95362.88;6300588;22;20007;-62
2022/03/04 05:08:34;;;;;;;26.10;20.80;;;;;;;0.07;92.09;95365.66;6300411;22;19999;-61
2022/03/04 05:11:00;;;;;;;23.35;19.17;;;;;;;0.08;92.18;95366.47;6300116;22;20015;-62
2022/03/04 05:13:26;;;;;;;22.55;19.38;;;;;;;0.10;92.39;95378.44;6273200;22;20405;-62
2022/03/04 05:15:52;;;;;;;21.63;18.15;;;;;;;0.07;91.86;95376.00;6299746;22;20003;-60
2022/03/04 05:18:17;;;;;;;23.27;18.48;;;;;;;0.04;91.59;95386.53;6300132;22;20074;-61
2022/03/04 05:20:43;;;;;;;20.90;17.70;;;;;;;0.02;91.94;95382.34;6300515;22;20082;-61
2022/03/04 05:23:09;;;;;;;19.52;17.17;;;;;;;0.05;91.97;95372.69;6300638;22;20011;-61
2022/03/04 05:25:35;;;;;;;19.98;17.00;;;;;;;0.07;91.15;95385.50;6299442;22;20026;-60
2022/03/04 05:28:01;;;;;;;24.92;15.30;;;;;;;0.04;91.10;95375.34;6300926;22;20007;-60
2022/03/04 05:30:26;;;;;;;19.17;16.30;;;;;;;0.01;90.96;95376.34;6300472;22;20002;-60
2022/03/04 05:32:51;;;;;;;21.70;15.40;;;;;;;-0.03;91.21;95380.88;6300490;22;20010;-60
2022/03/04 05:35:17;;;;;;;19.88;15.55;;;;;;;-0.04;91.18;95380.94;6300960;22;20023;-61
2022/03/04 05:37:42;;;;;;;19.10;16.25;;;;;;;-0.08;91.45;95380.28;6300176;22;20009;-61
2022/03/04 05:40:08;;;;;;;18.42;14.65;;;;;;;-0.16;91.54;95385.03;6300853;22;20003;-60
2022/03/04 05:42:34;;;;;;;22.48;14.52;;;;;;;-0.21;92.01;95377.53;6300501;22;20006;-61
2022/03/04 05:45:00;;;;;;;18.52;15.55;;;;;;;-0.21;91.47;95380.13;6301102;22;20003;-61
2022/03/04 05:47:25;;;;;;;17.13;15.20;;;;;;;-0.20;91.88;95384.38;6300250;22;20054;-61
2022/03/04 05:49:51;;;;;;;17.50;14.13;;;;;;;-0.21;92.18;95379.28;6300088;22;20070;-61
2022/03/04 05:52:16;;;;;;;21.55;14.05;;;;;;;-0.21;91.46;95381.88;6300959;22;19999;-60
2022/03/04 05:54:42;;;;;;;17.02;14.10;;;;;;;-0.19;91.24;95382.63;6300521;22;20324;-61
2022/03/04 05:57:07;;;;;;;16.70;13.15;;;;;;;-0.19;91.64;95386.06;6300541;22;20007;-60
2022/03/04 05:59:33;;;;;;;18.02;13.43;;;;;;;-0.19;91.06;95380.03;6300307;22;20007;-61
2022/03/04 06:01:58;;;;;;;15.88;12.68;;;;;;;-0.24;91.66;95382.03;6300518;22;20048;-61
2022/03/04 06:04:24;;;;;;;19.30;13.40;;;;;;;-0.24;91.32;95382.03;6300593;22;20011;-61
2022/03/04 06:06:49;;;;;;;18.42;13.52;;;;;;;-0.24;91.42;95387.22;6300715;22;20458;-61
2022/03/04 06:09:14;;;;;;;19.92;13.48;;;;;;;-0.28;91.36;95380.53;6300659;22;20371;-60
2022/03/04 06:11:40;;;;;;;14.60;12.70;;;;;;;-0.32;91.94;95378.13;6300367;22;20058;-60
2022/03/04 06:14:06;;;;;;;17.27;13.15;;;;;;;-0.34;92.27;95385.09;6300631;22;20141;-60
2022/03/04 06:16:32;;;;;;;16.00;13.15;;;;;;;-0.33;91.78;95381.63;6299843;22;20004;-60
2022/03/04 06:18:58;;;;;;;16.35;13.82;;;;;;;-0.29;91.85;95384.88;6300301;22;20017;-60
2022/03/04 06:21:23;;;;;;;20.58;14.40;;;;;;;-0.30;92.09;95388.38;6300657;22;20074;-60
2022/03/04 06:23:49;;;;;;;18.13;14.43;;;;;;;-0.32;91.94;95393.66;6300430;22;20034;-61
2022/03/04 06:26:14;;;;;;;15.25;13.35;;;;;;;-0.34;92.28;95392.03;6300395;22;20007;-61
2022/03/04 06:28:40;;;;;;;15.18;13.48;;;;;;;-0.32;92.17;95396.22;6300174;22;20431;-61
2022/03/04 06:31:05;;;;;;;18.20;14.30;;;;;;;-0.33;92.05;95402.31;6299317;22;20351;-61
2022/03/04 06:33:32;;;;;;;17.50;13.63;;;;;;;-0.33;93.08;95404.06;6299257;22;20000;-60
2022/03/04 06:36:06;;;;;;;16.40;13.98;;;;;;;-0.36;92.57;95401.66;6299206;22;20008;-61
2022/03/04 06:38:34;;;;;;;16.75;14.05;;;;;;;-0.33;92.41;95404.91;6298604;22;20442;-61
2022/03/04 06:41:00;;;;;;;15.82;14.05;;;;;;;-0.34;92.46;95421.31;6299394;22;20000;-61
2022/03/04 06:43:25;;;;;;;17.23;15.43;;;;;;;-0.33;92.69;95417.84;6297639;22;20018;-61
2022/03/04 06:45:51;;;;;;;16.40;14.48;;;;;;;-0.30;92.72;95419.41;6298301;22;20423;-61
2022/03/04 06:48:18;;;;;;;19.42;15.90;;;;;;;-0.26;92.08;95414.91;6298918;22;20031;-61
2022/03/04 06:50:46;;;;;;;18.70;16.77;;;;;;;-0.25;92.82;95419.19;6300047;22;20372;-67
2022/03/04 06:53:12;;;;;;;24.25;18.25;;;;;;;-0.24;92.75;95420.84;6299378;22;20011;-63
2022/03/04 06:55:37;;;;;;;21.88;19.58;;;;;;;-0.26;91.92;95425.28;6300198;22;20003;-63
2022/03/04 06:58:03;;;;;;;20.85;18.10;;;;;;;-0.26;92.94;95426.09;6299421;22;20395;-62
2022/03/04 07:00:29;;;;;;;23.02;19.95;;;;;;;-0.24;92.54;95419.09;6298916;22;20016;-64
2022/03/04 07:02:55;;;;;;;21.60;19.17;;;;;;;-0.17;92.23;95430.78;6298945;22;20398;-62
2022/03/04 07:05:24;;;;;;;23.48;19.65;;;;;;;-0.10;92.03;95430.44;6299324;22;20000;-62
2022/03/04 07:07:50;;;;;;;23.90;17.52;;;;;;;-0.02;91.49;95426.53;6298475;22;20079;-63
2022/03/04 07:10:16;;;;;;;24.42;17.80;;;;;;;0.03;91.44;95430.63;6298380;22;20019;-60
2022/03/04 07:12:41;;;;;;;22.58;16.83;;;;;;;0.03;91.31;95434.06;6299037;22;20022;-60
2022/03/04 07:15:08;;;;;;;21.55;16.23;;;;;;;0.06;91.00;95433.03;6298995;22;20003;-52
2022/03/04 07:17:33;;;;;;;19.83;16.73;;;;;;;0.12;91.15;95436.13;6299751;22;20003;-49
2022/03/04 07:19:59;;;;;;;23.05;16.52;;;;;;;0.20;91.12;95443.47;6299994;22;20514;-53
2022/03/04 07:22:24;;;;;;;24.58;17.08;;;;;;;0.25;90.23;95444.06;6300046;22;20003;-52
2022/03/04 07:24:50;;;;;;;23.00;16.85;;;;;;;0.32;91.08;95447.13;6299874;22;20423;-54
2022/03/04 07:27:15;;;;;;;24.27;16.30;;;;;;;0.35;90.83;95454.75;6299951;22;20438;-54
2022/03/04 07:29:41;;;;;;;25.45;16.63;;;;;;;0.39;90.98;95453.63;6299882;22;20079;-55
2022/03/04 07:32:06;;;;;;;22.65;16.75;;;;;;;0.49;91.08;95447.97;6300082;22;20003;-55
2022/03/04 07:34:32;;;;;;;27.00;18.98;;;;;;;0.56;90.35;95455.31;6299237;22;20191;-54
2022/03/04 07:36:57;;;;;;;18.65;15.55;;;;;;;0.62;90.66;95458.47;6299350;22;20003;-54
2022/03/04 07:39:22;;;;;;;24.20;17.17;;;;;;;0.64;90.71;95457.44;6298255;22;20003;-54
2022/03/04 07:41:48;;;;;;;22.92;17.98;;;;;;;0.68;90.35;95456.38;6298647;22;20035;-54
2022/03/04 07:44:15;;;;;;;18.63;16.30;;;;;;;0.69;90.88;95463.22;6299210;22;20007;-55
2022/03/04 07:46:40;;;;;;;23.35;16.75;;;;;;;0.74;89.95;95454.34;6298102;22;20034;-53
2022/03/04 07:49:06;;;;;;;24.42;17.10;;;;;;;0.82;89.90;95465.94;6298487;22;20082;-55
2022/03/04 07:51:33;;;;;;;23.90;15.55;;;;;;;0.89;89.69;95461.25;6298633;22;20011;-55
2022/03/04 07:53:59;;;;;;;23.83;18.40;;;;;;;0.96;88.79;95462.56;6298454;22;20003;-53
2022/03/04 07:56:24;;;;;;;20.75;16.02;;;;;;;1.03;88.86;95463.03;6300017;22;20320;-54
2022/03/04 07:58:49;;;;;;;26.13;16.45;;;;;;;1.17;88.25;95469.16;6298202;22;20010;-53
2022/03/04 08:01:15;;;;;;;16.95;14.88;;;;;;;1.21;88.47;95466.31;6299373;22;20221;-51
2022/03/04 08:03:42;;;;;;;21.55;15.52;;;;;;;1.57;89.45;95467.66;6298674;22;20070;-51
2022/03/04 08:06:08;;;;;;;28.13;15.13;;;;;;;2.25;87.88;95470.44;6299064;22;20431;-53
2022/03/04 08:08:34;;;;;;;28.85;15.43;;;;;;;2.92;85.42;95461.03;6299437;22;20095;-53
2022/03/04 08:10:59;;;;;;;16.63;14.60;;;;;;;3.52;82.56;95465.78;6300533;22;20016;-53
2022/03/04 08:13:25;;;;;;;21.58;15.90;;;;;;;3.93;81.21;95466.47;6300380;22;20002;-54
2022/03/04 08:15:50;;;;;;;19.00;17.02;;;;;;;4.14;79.91;95464.97;6300440;22;20007;-52
2022/03/04 08:18:15;;;;;;;19.65;16.95;;;;;;;4.40;78.27;95459.69;6299989;22;20007;-53
2022/03/04 08:20:41;;;;;;;26.35;19.30;;;;;;;4.84;77.51;95452.22;6297696;22;20043;-54
2022/03/04 08:23:06;;;;;;;20.35;15.50;;;;;;;5.19;75.94;95462.75;6299372;22;20008;-53
2022/03/04 08:25:32;;;;;;;17.25;13.93;;;;;;;5.20;74.32;95462.66;6299626;22;20007;-55
2022/03/04 08:27:57;;;;;;;18.10;14.00;;;;;;;5.11;73.97;95463.34;6298325;22;20003;-54
2022/03/04 08:30:23;;;;;;;17.20;13.68;;;;;;;5.18;74.23;95464.53;6298220;22;20336;-54
2022/03/04 08:32:49;;;;;;;17.67;14.55;;;;;;;5.23;73.90;95465.03;6298800;22;19995;-54
2022/03/04 08:35:15;;;;;;;17.33;14.07;;;;;;;5.46;73.67;95462.47;6300132;22;20039;-52
2022/03/04 08:37:41;;;;;;;22.92;14.30;;;;;;;5.85;72.62;95460.38;6299435;22;20007;-54
2022/03/04 08:40:11;;;;;;;16.08;12.75;;;;;;;6.07;71.71;95456.13;6300100;22;20035;-53
2022/03/04 08:42:41;;;;;;;15.25;12.05;;;;;;;6.39;71.35;95452.75;6300327;22;20446;-52
2022/03/04 08:45:09;;;;;;;14.68;12.32;;;;;;;6.75;69.92;95460.41;6300497;22;20011;-54
2022/03/04 08:47:34;;;;;;;16.00;12.25;;;;;;;6.96;69.41;95451.72;6271733;22;20094;-54
2022/03/04 08:50:00;;;;;;;14.65;12.25;;;;;;;7.06;68.15;95465.75;6299866;22;20046;-53
2022/03/04 08:52:25;;;;;;;19.50;13.30;;;;;;;7.26;67.72;95458.84;6299580;22;20082;-53
2022/03/04 08:54:50;;;;;;;18.75;13.82;;;;;;;7.51;65.17;95454.19;6299700;22;20004;-54
2022/03/04 08:57:16;;;;;;;16.67;14.70;;;;;;;7.64;63.56;95461.88;6300348;22;20434;-53
2022/03/04 08:59:41;;;;;;;19.63;14.70;;;;;;;7.65;61.58;95453.06;6299559;22;20003;-53
2022/03/04 09:02:07;;;;;;;19.38;14.43;;;;;;;7.65;61.46;95453.06;6300134;22;20040;-53
2022/03/04 09:04:32;;;;;;;18.42;15.70;;;;;;;7.67;61.88;95463.38;6298636;22;20700;-51
2022/03/04 09:06:57;;;;;;;22.90;15.65;;;;;;;7.60;61.68;95465.69;6298816;22;20027;-53
2022/03/04 09:09:23;;;;;;;19.80;14.65;;;;;;;7.54;61.70;95466.22;6298490;22;20019;-54
2022/03/04 09:11:48;;;;;;;15.57;13.93;;;;;;;7.70;60.82;95463.97;6298617;22;20731;-52
2022/03/04 09:14:15;;;;;;;21.80;15.02;;;;;;;7.77;60.27;95463.44;6299082;22;20086;-52
2022/03/04 09:16:41;;;;;;;18.27;14.73;;;;;;;7.81;60.02;95465.69;6299238;22;20078;-55
2022/03/04 09:19:07;;;;;;;17.75;15.60;;;;;;;7.93;60.71;95452.47;6297518;22;20050;-54
2022/03/04 09:21:32;;;;;;;17.10;15.13;;;;;;;8.17;60.79;95457.41;6298959;22;20338;-55
2022/03/04 09:23:58;;;;;;;22.17;15.75;;;;;;;8.26;59.19;95453.97;6298466;22;20074;-53
2022/03/04 09:26:24;;;;;;;17.40;15.60;;;;;;;8.38;58.95;95459.94;6298217;22;20402;-54
2022/03/04 09:28:49;;;;;;;19.48;16.02;;;;;;;8.63;58.46;95451.75;6299474;22;19995;-54
2022/03/04 09:31:15;;;;;;;18.40;14.77;;;;;;;8.90;57.18;95456.34;6300032;22;20690;-50
2022/03/04 09:33:40;;;;;;;16.02;14.32;;;;;;;8.86;57.30;95453.16;6298102;22;20021;-50
2022/03/04 09:36:11;;;;;;;18.48;14.40;;;;;;;9.05;56.01;95441.00;6300207;22;20070;-53
2022/03/04 09:38:36;;;;;;;17.23;15.40;;;;;;;9.34;55.08;95442.78;6299481;22;20481;-50
2022/03/04 09:41:02;;;;;;;21.30;17.90;;;;;;;9.70;53.47;95439.50;6299828;22;20003;-50
2022/03/04 09:43:27;;;;;;;22.45;15.60;;;;;;;9.57;50.41;95440.66;6299964;22;20006;-52
2022/03/04 09:45:52;;;;;;;18.85;16.67;;;;;;;10.01;51.51;95442.75;6299983;22;20416;-51
2022/03/04 09:48:18;;;;;;;20.83;16.73;;;;;;;10.56;50.32;95442.91;6299582;22;20493;-54
2022/03/04 09:50:46;;;;;;;36.10;16.52;;;;;;;10.77;48.26;95445.28;6298808;22;20008;-51
2022/03/04 09:53:12;;;;;;;23.58;16.40;;;;;;;11.03;47.60;95440.09;6300122;22;20355;-52
2022/03/04 09:55:39;;;;;;;18.10;15.95;;;;;;;11.41;46.26;95441.72;6298719;22;20003;-51
2022/03/04 09:58:12;;;;;;;23.35;15.30;;;;;;;11.38;43.53;95436.75;6300002;22;20474;-54
2022/03/04 10:00:42;;;;;;;20.60;16.88;;;;;;;11.82;45.02;95439.38;6300001;22;20086;-53
2022/03/04 10:03:39;;;;;;;17.42;15.40;;;;;;;12.14;43.80;95434.44;6299714;22;20086;-55
2022/03/04 10:06:05;;;;;;;19.42;16.40;;;;;;;12.44;42.68;95427.81;6299855;22;20003;-53
2022/03/04 10:08:37;;;;;;;17.42;15.40;;;;;;;12.70;42.43;95429.53;6299698;22;20075;-51
2022/03/04 10:11:02;;;;;;;21.35;16.10;;;;;;;12.94;41.29;95437.69;6299692;22;20421;-55
2022/03/04 10:13:47;;;;;;;23.55;16.50;;;;;;;13.32;39.63;95435.38;6299930;22;20003;-54
2022/03/04 10:16:25;;;;;;;24.15;17.48;;;;;;;13.44;39.32;95422.66;6299425;22;20003;-55
2022/03/04 10:19:04;;;;;;;19.13;16.60;;;;;;;13.30;38.80;95426.78;6297825;22;20366;-52
2022/03/04 10:21:47;;;;;;;17.15;15.35;;;;;;;13.16;39.35;95434.41;6299749;22;20030;-54
2022/03/04 10:24:14;;;;;;;17.58;15.15;;;;;;;13.17;39.33;95440.50;6300036;22;20442;-52
2022/03/04 10:26:39;;;;;;;19.92;16.08;;;;;;;13.31;39.59;95436.34;6298226;22;20483;-51
2022/03/04 10:29:18;;;;;;;20.30;15.25;;;;;;;13.57;38.82;95422.16;6299634;22;20022;-52
2022/03/04 10:32:24;;;;;;;22.05;16.95;;;;;;;13.31;40.04;95423.97;6299472;22;20461;-55
2022/03/04 10:35:05;;;;;;;20.88;15.93;;;;;;;13.77;38.84;95420.00;6271787;22;20094;-56
2022/03/04 10:37:48;;;;;;;19.73;15.00;;;;;;;13.69;37.52;95420.84;6300020;22;20007;-54
2022/03/04 10:40:19;;;;;;;22.90;16.63;;;;;;;13.77;37.12;95412.06;6298407;22;20015;-54
2022/03/04 10:42:49;;;;;;;19.85;14.90;;;;;;;14.09;37.81;95414.78;6299542;22;20060;-54
2022/03/04 10:45:18;;;;;;;17.95;15.40;;;;;;;14.24;37.86;95410.41;6299986;22;20064;-55
2022/03/04 10:47:50;;;;;;;16.73;14.88;;;;;;;14.64;36.76;95409.56;6299362;22;20011;-56
2022/03/04 10:50:19;;;;;;;18.80;15.98;;;;;;;15.17;35.92;95404.44;6299666;22;20247;-55
2022/03/04 10:52:48;;;;;;;17.42;15.63;;;;;;;15.51;34.87;95411.13;6299886;22;20664;-55
2022/03/04 10:55:25;;;;;;;24.02;18.30;;;;;;;15.65;33.75;95406.03;6298645;22;20083;-54
2022/03/04 10:57:50;;;;;;;20.60;15.98;;;;;;;15.92;33.29;95401.97;6298364;22;20007;-55
2022/03/04 11:00:23;;;;;;;20.02;14.90;;;;;;;15.69;33.95;95397.53;6297536;22;20016;-54
2022/03/04 11:02:49;;;;;;;20.77;15.68;;;;;;;16.04;33.42;95395.22;6298239;22;20026;-55
2022/03/04 11:05:14;;;;;;;18.70;15.85;;;;;;;16.17;33.52;95388.41;6298848;22;20435;-54
2022/03/04 11:07:42;;;;;;;22.00;16.75;;;;;;;16.52;32.02;95395.78;6298074;22;20395;-52
2022/03/04 11:10:08;;;;;;;20.27;16.27;;;;;;;16.81;31.10;95394.06;6298652;22;20091;-55
2022/03/04 11:12:34;;;;;;;19.00;17.08;;;;;;;16.93;30.46;95397.06;6299359;22;20003;-54
2022/03/04 11:15:01;;;;;;;19.90;15.45;;;;;;;16.56;30.64;95395.22;6296861;22;20057;-53
2022/03/04 11:17:29;;;;;;;22.63;17.55;;;;;;;16.88;30.79;95401.09;6297443;22;20470;-53
2022/03/04 11:19:54;;;;;;;20.90;16.52;;;;;;;16.87;31.27;95396.78;6297638;22;20575;-52